Time;durP1;ratioP1;P1;durP2;ratioP2;P2;SDS_P1;SDS_P2;PMS_P1;PMS_P2;Temp;Humidity;BMP_temperature;BMP_pressure;BME280_temperature;BME280_humidity;BME280_pressure;Samples;Min_cycle;Max_cycle;Signal;HPM_P1;HPM_P2
2024/01/16 00:01:20;;;;;;;;;;;;;;;-2.85;100.00;94929.03;10425981;28;3097;-65
2024/01/16 00:06:23;;;;;;;;;;;;;;;-2.86;100.00;94932.69;10440303;28;2974;-65
2024/01/16 00:11:26;;;;;;;;;;;;;;;-2.87;100.00;94936.31;10438212;28;3124;-65
2024/01/16 00:16:28;;;;;;;;;;;;;;;-2.88;100.00;94945.22;10444958;28;3167;-65
2024/01/16 00:21:31;;;;;;;;;;;;;;;-2.87;100.00;94952.09;10439980;28;3044;-65
2024/01/16 00:26:34;;;;;;;;;;;;;;;-2.93;100.00;94960.81;10443829;28;2943;-66
2024/01/16 00:31:36;;;;;;;;;;;;;;;-2.94;100.00;94946.06;10434329;28;2931;-70
2024/01/16 00:36:39;;;;;;;;;;;;;;;-2.96;100.00;94961.25;10443745;28;2882;-70
2024/01/16 00:41:41;;;;;;;;;;;;;;;-2.96;100.00;94963.06;10443760;28;2985;-67
2024/01/16 00:46:44;;;;;;;;;;;;;;;-2.94;100.00;94980.25;10446575;28;3100;-65
2024/01/16 00:51:46;;;;;;;;;;;;;;;-2.94;100.00;94976.81;10439375;28;3056;-71
2024/01/16 00:56:49;;;;;;;;;;;;;;;-2.99;100.00;94987.94;10440513;28;3096;-66
2024/01/16 01:01:52;;;;;;;;;;;;;;;-3.07;100.00;94989.00;10443024;28;3041;-65
2024/01/16 01:06:54;;;;;;;;;;;;;;;-3.29;100.00;94991.09;10443629;28;2934;-66
2024/01/16 01:11:57;;;;;;;;;;;;;;;-3.49;100.00;95007.94;10441497;28;2873;-65
2024/01/16 01:17:00;;;;;;;;;;;;;;;-3.61;100.00;95013.00;10440079;28;3083;-62
2024/01/16 01:22:02;;;;;;;;;;;;;;;-3.64;100.00;95010.75;10441776;28;3254;-65
2024/01/16 01:27:06;;;;;;;;;;;;;;;-3.64;100.00;95002.88;10434398;28;3088;-66
2024/01/16 01:32:08;;;;;;;;;;;;;;;-3.63;100.00;95015.00;10440642;28;3059;-66
2024/01/16 01:37:11;;;;;;;;;;;;;;;-3.55;100.00;95031.38;10437515;28;2978;-66
2024/01/16 01:42:13;;;;;;;;;;;;;;;-3.32;100.00;95038.78;10443866;28;2993;-69
2024/01/16 01:47:16;;;;;;;;;;;;;;;-3.19;100.00;95045.03;10441540;28;3012;-67
2024/01/16 01:52:18;;;;;;;;;;;;;;;-3.13;100.00;95041.59;10441411;28;2914;-67
2024/01/16 01:57:21;;;;;;;;;;;;;;;-3.09;100.00;95043.63;10439125;28;2920;-65
2024/01/16 02:02:23;;;;;;;;;;;;;;;-3.10;100.00;95046.44;10431943;28;3022;-65
2024/01/16 02:07:26;;;;;;;;;;;;;;;-3.00;100.00;95052.88;10436601;28;3128;-66
2024/01/16 02:12:28;;;;;;;;;;;;;;;-3.02;100.00;95054.91;10422375;28;2794;-64
2024/01/16 02:17:31;;;;;;;;;;;;;;;-3.07;100.00;95057.34;10437629;28;3168;-64
2024/01/16 02:22:34;;;;;;;;;;;;;;;-3.21;100.00;95054.97;10440814;28;3013;-66
2024/01/16 02:27:36;;;;;;;;;;;;;;;-3.49;100.00;95048.16;10433116;28;2970;-66
2024/01/16 02:32:39;;;;;;;;;;;;;;;-3.67;100.00;95058.47;10439327;28;2868;-64
2024/01/16 02:37:41;;;;;;;;;;;;;;;-3.76;100.00;95073.59;10435832;28;3097;-68
2024/01/16 02:42:44;;;;;;;;;;;;;;;-3.96;100.00;95076.22;10431086;28;2859;-66
2024/01/16 02:47:46;;;;;;;;;;;;;;;-4.00;100.00;95084.72;10434512;28;2915;-65
2024/01/16 02:52:49;;;;;;;;;;;;;;;-4.10;100.00;95080.63;10432719;28;2992;-66
2024/01/16 02:57:51;;;;;;;;;;;;;;;-4.16;100.00;95073.56;10437257;28;3078;-64
2024/01/16 03:02:54;;;;;;;;;;;;;;;-4.20;100.00;95077.59;10434524;28;2965;-70
2024/01/16 03:07:57;;;;;;;;;;;;;;;-4.30;100.00;95076.38;10435565;28;2906;-65
2024/01/16 03:12:59;;;;;;;;;;;;;;;-4.25;100.00;95085.25;10439000;28;2933;-65
2024/01/16 03:18:02;;;;;;;;;;;;;;;-4.42;100.00;95090.06;10434761;28;2917;-66
2024/01/16 03:23:05;;;;;;;;;;;;;;;-4.44;100.00;95092.06;10434516;28;3017;-66
2024/01/16 03:28:10;;;;;;;;;;;;;;;-4.42;100.00;95089.25;10432232;28;3080;-69
2024/01/16 03:33:12;;;;;;;;;;;;;;;-4.46;100.00;95098.50;10436318;28;3109;-65
2024/01/16 03:38:15;;;;;;;;;;;;;;;-4.52;100.00;95105.34;10436189;28;2953;-66
2024/01/16 03:43:18;;;;;;;;;;;;;;;-4.63;100.00;95103.31;10434997;28;3002;-66
2024/01/16 03:48:21;;;;;;;;;;;;;;;-4.69;100.00;95104.09;10435103;28;2969;-65
2024/01/16 03:53:23;;;;;;;;;;;;;;;-4.73;100.00;95102.84;10437309;28;3105;-65
2024/01/16 03:58:26;;;;;;;;;;;;;;;-4.76;100.00;95100.63;10432421;28;3021;-66
2024/01/16 04:03:29;;;;;;;;;;;;;;;-4.73;100.00;95094.97;10432296;28;2961;-66
2024/01/16 04:08:31;;;;;;;;;;;;;;;-4.68;100.00;95100.44;10437761;28;3048;-65
2024/01/16 04:13:33;;;;;;;;;;;;;;;-4.55;100.00;95090.00;10434512;28;2987;-66
2024/01/16 04:18:36;;;;;;;;;;;;;;;-4.49;100.00;95098.91;10429803;28;3023;-65
2024/01/16 04:23:39;;;;;;;;;;;;;;;-4.55;100.00;95092.63;10437737;28;2883;-68
2024/01/16 04:28:42;;;;;;;;;;;;;;;-4.39;100.00;95089.69;10425582;28;2944;-65
2024/01/16 04:33:45;;;;;;;;;;;;;;;-4.28;100.00;95090.09;10437391;28;2902;-66
2024/01/16 04:38:48;;;;;;;;;;;;;;;-4.37;100.00;95090.28;10442034;28;3021;-64
2024/01/16 04:43:51;;;;;;;;;;;;;;;-4.41;100.00;95089.03;10438090;28;3395;-67
2024/01/16 04:48:53;;;;;;;;;;;;;;;-4.52;100.00;95076.50;10438413;28;2956;-65
2024/01/16 04:53:56;;;;;;;;;;;;;;;-4.48;100.00;95079.53;10441223;28;3056;-65
2024/01/16 04:58:58;;;;;;;;;;;;;;;-4.59;100.00;95077.47;10437810;28;2843;-67
2024/01/16 05:04:01;;;;;;;;;;;;;;;-4.69;100.00;95078.66;10442541;28;3106;-64
2024/01/16 05:09:04;;;;;;;;;;;;;;;-4.58;100.00;95074.69;10439246;28;3002;-66
2024/01/16 05:14:06;;;;;;;;;;;;;;;-4.73;100.00;95077.44;10440263;28;3001;-66
2024/01/16 05:19:09;;;;;;;;;;;;;;;-4.76;100.00;95085.72;10438204;28;2924;-70
2024/01/16 05:24:11;;;;;;;;;;;;;;;-4.72;100.00;95083.47;10438462;28;3092;-66
2024/01/16 05:29:14;;;;;;;;;;;;;;;-4.77;100.00;95076.22;10437371;28;3171;-65
2024/01/16 05:34:16;;;;;;;;;;;;;;;-4.65;100.00;95084.31;10444516;28;2982;-64
2024/01/16 05:39:19;;;;;;;;;;;;;;;-4.69;100.00;95080.47;10437174;28;2923;-64
2024/01/16 05:44:21;;;;;;;;;;;;;;;-4.73;100.00;95079.25;10439111;28;3128;-65
2024/01/16 05:49:24;;;;;;;;;;;;;;;-4.67;100.00;95081.91;10436061;28;2941;-64
2024/01/16 05:54:26;;;;;;;;;;;;;;;-4.66;100.00;95080.88;10438675;28;3083;-67
2024/01/16 05:59:29;;;;;;;;;;;;;;;-4.76;100.00;95074.41;10443734;28;2961;-65
2024/01/16 06:04:32;;;;;;;;;;;;;;;-4.78;100.00;95073.78;10443349;28;3068;-65
2024/01/16 06:09:34;;;;;;;;;;;;;;;-4.81;100.00;95072.38;10443555;28;3071;-67
2024/01/16 06:14:37;;;;;;;;;;;;;;;-4.84;100.00;95075.38;10444239;28;3053;-65
2024/01/16 06:19:40;;;;;;;;;;;;;;;-4.81;100.00;95082.84;10444254;28;3008;-65
2024/01/16 06:24:42;;;;;;;;;;;;;;;-4.63;100.00;95066.59;10442547;28;3029;-65
2024/01/16 06:29:45;;;;;;;;;;;;;;;-4.57;100.00;95065.00;10435930;28;2975;-64
2024/01/16 06:34:47;;;;;;;;;;;;;;;-4.48;100.00;95082.16;10438061;28;2881;-65
2024/01/16 06:39:50;;;;;;;;;;;;;;;-4.46;100.00;95080.94;10439198;28;2950;-67
2024/01/16 06:44:53;;;;;;;;;;;;;;;-4.46;100.00;95072.28;10436724;28;2903;-66
2024/01/16 06:49:55;;;;;;;;;;;;;;;-4.32;100.00;95078.38;10427580;28;3075;-66
2024/01/16 06:54:58;;;;;;;;;;;;;;;-4.28;100.00;95069.91;10437741;28;2938;-66
2024/01/16 07:00:00;;;;;;;;;;;;;;;-4.12;100.00;95085.28;10437185;28;2937;-63
2024/01/16 07:05:03;;;;;;;;;;;;;;;-4.00;100.00;95080.25;10435495;28;2977;-65
2024/01/16 07:10:08;;;;;;;;;;;;;;;-3.94;100.00;95082.09;10437053;28;3053;-66
2024/01/16 07:15:10;;;;;;;;;;;;;;;-3.87;100.00;95077.66;10441002;28;2927;-65
2024/01/16 07:20:12;;;;;;;;;;;;;;;-3.74;100.00;95065.53;10429436;28;2894;-64
2024/01/16 07:25:15;;;;;;;;;;;;;;;-3.65;100.00;95064.31;10432160;28;3005;-65
2024/01/16 07:30:17;;;;;;;;;;;;;;;-3.42;100.00;95075.22;10430966;28;2978;-67
2024/01/16 07:35:20;;;;;;;;;;;;;;;-3.21;100.00;95082.06;10434905;28;2922;-65
2024/01/16 07:40:23;;;;;;;;;;;;;;;-3.07;100.00;95088.09;10438567;28;2950;-65
2024/01/16 07:45:26;;;;;;;;;;;;;;;-2.85;100.00;95092.09;10440191;28;2981;-65
2024/01/16 07:50:28;;;;;;;;;;;;;;;-2.65;100.00;95081.50;10437065;28;2942;-64
2024/01/16 07:55:30;;;;;;;;;;;;;;;-2.44;100.00;95080.41;10430118;28;2951;-65
2024/01/16 08:00:33;;;;;;;;;;;;;;;-2.31;100.00;95077.69;10431740;28;3085;-64
2024/01/16 08:05:38;;;;;;;;;;;;;;;-2.17;100.00;95067.91;10435726;28;3031;-65
2024/01/16 08:10:41;;;;;;;;;;;;;;;-2.06;100.00;95066.44;10444790;28;2994;-65
2024/01/16 08:15:43;;;;;;;;;;;;;;;-2.04;100.00;95077.53;10428177;28;3177;-63
2024/01/16 08:20:46;;;;;;;;;;;;;;;-1.93;100.00;95082.16;10445236;28;3076;-63
2024/01/16 08:25:49;;;;;;;;;;;;;;;-1.94;100.00;95085.81;10445954;28;2783;-63
2024/01/16 08:30:51;;;;;;;;;;;;;;;-1.57;100.00;95084.13;10446217;28;2875;-64
2024/01/16 08:35:54;;;;;;;;;;;;;;;-1.43;100.00;95075.09;10436041;28;3106;-65
2024/01/16 08:40:56;;;;;;;;;;;;;;;-1.22;100.00;95076.50;10450974;28;3098;-64
2024/01/16 08:45:58;;;;;;;;;;;;;;;-0.90;100.00;95068.50;10451060;28;3188;-63
2024/01/16 08:51:01;;;;;;;;;;;;;;;-0.71;100.00;95071.94;10441936;28;2994;-69
2024/01/16 08:56:06;;;;;;;;;;;;;;;-0.58;100.00;95054.13;10440875;28;3005;-65
2024/01/16 09:01:10;;;;;;;;;;;;;;;-0.55;100.00;95051.03;10438794;28;2841;-65
2024/01/16 09:06:12;;;;;;;;;;;;;;;-0.23;100.00;95050.84;10445809;28;2969;-64
2024/01/16 09:11:15;;;;;;;;;;;;;;;0.08;100.00;95049.81;10442970;28;2897;-66
2024/01/16 09:16:17;;;;;;;;;;;;;;;0.44;100.00;95040.09;10444924;28;3063;-68
2024/01/16 09:21:20;;;;;;;;;;;;;;;0.33;100.00;95039.06;10433659;28;2882;-68
2024/01/16 09:26:22;;;;;;;;;;;;;;;0.53;100.00;95031.59;10436201;28;3080;-72
2024/01/16 09:31:25;;;;;;;;;;;;;;;0.33;100.00;95039.06;10442665;28;3073;-71
2024/01/16 09:36:28;;;;;;;;;;;;;;;0.39;100.00;95030.22;10442461;28;3610;-69
2024/01/16 09:41:32;;;;;;;;;;;;;;;0.68;100.00;95027.69;10443247;28;2982;-66
2024/01/16 09:46:35;;;;;;;;;;;;;;;0.87;100.00;95031.03;10445354;28;2935;-65
2024/01/16 09:51:38;;;;;;;;;;;;;;;0.87;100.00;95031.84;10447204;28;2973;-72
2024/01/16 09:56:41;;;;;;;;;;;;;;;1.05;100.00;95036.19;10437250;28;2951;-70
2024/01/16 10:01:43;;;;;;;;;;;;;;;1.05;100.00;95033.56;10442642;28;2989;-65
2024/01/16 10:06:46;;;;;;;;;;;;;;;1.42;100.00;95028.78;10436148;28;2899;-69
2024/01/16 10:11:48;;;;;;;;;;;;;;;1.36;100.00;95024.41;10435431;28;3042;-64
2024/01/16 10:16:51;;;;;;;;;;;;;;;1.59;100.00;95018.22;10438716;28;3259;-70
2024/01/16 10:21:53;;;;;;;;;;;;;;;1.86;100.00;95016.63;10440673;28;3029;-65
2024/01/16 10:26:56;;;;;;;;;;;;;;;1.60;100.00;95010.06;10448023;28;3044;-66
2024/01/16 10:31:59;;;;;;;;;;;;;;;1.76;100.00;95002.38;10436994;28;2898;-66
2024/01/16 10:37:01;;;;;;;;;;;;;;;1.67;100.00;94993.22;10434039;28;2891;-65
2024/01/16 10:42:04;;;;;;;;;;;;;;;1.94;100.00;94994.25;10437320;28;3030;-71
2024/01/16 10:47:06;;;;;;;;;;;;;;;1.97;100.00;94985.78;10444280;28;3001;-66
2024/01/16 10:52:08;;;;;;;;;;;;;;;1.56;100.00;94981.63;10445440;28;3033;-65
2024/01/16 10:57:11;;;;;;;;;;;;;;;2.12;100.00;94986.06;10437588;28;3101;-66
2024/01/16 11:02:13;;;;;;;;;;;;;;;2.10;100.00;94988.16;10437432;28;2949;-66
2024/01/16 11:07:16;;;;;;;;;;;;;;;2.54;100.00;94977.72;10440470;28;3034;-65
2024/01/16 11:12:22;;;;;;;;;;;;;;;2.72;100.00;94980.09;10437563;28;2897;-64
2024/01/16 11:17:24;;;;;;;;;;;;;;;2.68;100.00;94980.84;10414342;28;2978;-65
2024/01/16 11:22:28;;;;;;;;;;;;;;;2.32;100.00;94974.19;10436577;28;3001;-65
2024/01/16 11:27:30;;;;;;;;;;;;;;;2.11;100.00;94965.13;10434604;28;3387;-67
2024/01/16 11:32:33;;;;;;;;;;;;;;;1.71;100.00;94955.41;10440209;28;2957;-65
2024/01/16 11:37:37;;;;;;;;;;;;;;;1.66;100.00;94949.22;10429720;28;3009;-65
2024/01/16 11:42:42;;;;;;;;;;;;;;;1.58;100.00;94950.41;10430732;28;2890;-68
2024/01/16 11:47:45;;;;;;;;;;;;;;;1.57;100.00;94939.00;10440764;28;2966;-65
2024/01/16 11:52:48;;;;;;;;;;;;;;;1.66;100.00;94942.09;10447524;28;2865;-65
2024/01/16 11:57:55;;;;;;;;;;;;;;;1.33;100.00;94940.94;10442329;28;2964;-65
2024/01/16 12:02:57;;;;;;;;;;;;;;;1.40;100.00;94943.47;10452812;28;3349;-66
2024/01/16 12:08:03;;;;;;;;;;;;;;;1.56;100.00;94934.75;10456183;28;2218;-65
2024/01/16 12:13:05;;;;;;;;;;;;;;;2.23;100.00;94910.16;10461800;28;1510;-65
2024/01/16 12:18:08;;;;;;;;;;;;;;;2.84;100.00;94897.72;10455974;28;1903;-64
2024/01/16 12:23:27;;;;;;;;;;;;;;;3.00;100.00;94879.34;10450069;28;1977;-66
2024/01/16 12:28:31;;;;;;;;;;;;;;;2.77;100.00;94881.19;10454371;28;1446;-65
2024/01/16 12:33:36;;;;;;;;;;;;;;;2.78;99.76;94876.69;10453350;28;2853;-65
2024/01/16 12:38:40;;;;;;;;;;;;;;;2.83;100.00;94871.44;10457833;28;2627;-66
2024/01/16 12:43:42;;;;;;;;;;;;;;;3.16;100.00;94863.31;10456573;28;1913;-65
2024/01/16 12:48:47;;;;;;;;;;;;;;;2.56;84.63;94852.78;10454281;28;1514;-65
2024/01/16 12:54:04;;;;;;;;;;;;;;;2.53;86.02;94848.75;10450511;28;2797;-66
2024/01/16 12:59:06;;;;;;;;;;;;;;;3.13;100.00;94853.22;10452646;28;2033;-65
2024/01/16 13:04:09;;;;;;;;;;;;;;;3.05;89.79;94856.28;10455787;28;1905;-64
2024/01/16 13:09:15;;;;;;;;;;;;;;;2.66;80.01;94856.34;10453664;28;2778;-66
2024/01/16 13:14:20;;;;;;;;;;;;;;;2.74;100.00;94838.44;10437049;28;2061;-66
2024/01/16 13:19:23;;;;;;;;;;;;;;;1.99;82.87;94837.94;10455312;28;1534;-66
2024/01/16 13:24:26;;;;;;;;;;;;;;;1.86;97.25;94828.47;10452090;28;1983;-64
2024/01/16 13:29:29;;;;;;;;;;;;;;;1.46;92.09;94812.72;10456475;28;1584;-65
2024/01/16 13:34:31;;;;;;;;;;;;;;;1.52;91.29;94817.06;10431349;28;2949;-66
2024/01/16 13:39:38;;;;;;;;;;;;;;;1.24;93.18;94814.47;10451031;28;2495;-65
2024/01/16 13:44:41;;;;;;;;;;;;;;;1.28;92.69;94818.28;10453271;28;1910;-65
2024/01/16 13:49:44;;;;;;;;;;;;;;;1.21;100.00;94818.41;10450664;28;1562;-66
2024/01/16 13:54:47;;;;;;;;;;;;;;;1.37;100.00;94818.66;10437476;28;2082;-66
2024/01/16 13:59:50;;;;;;;;;;;;;;;1.26;100.00;94812.38;10452468;28;2830;-65
2024/01/16 14:04:53;;;;;;;;;;;;;;;1.08;100.00;94816.03;10450743;28;2133;-67
2024/01/16 14:09:56;;;;;;;;;;;;;;;0.89;97.87;94815.47;10456800;28;1487;-65
2024/01/16 14:15:00;;;;;;;;;;;;;;;0.84;98.09;94815.38;10456843;28;1624;-68
2024/01/16 14:20:05;;;;;;;;;;;;;;;0.45;100.00;94828.34;10456748;28;2944;-66
2024/01/16 14:25:10;;;;;;;;;;;;;;;0.66;100.00;94818.19;10453131;28;2045;-69
2024/01/16 14:30:13;;;;;;;;;;;;;;;0.22;100.00;94812.53;10450160;28;1584;-68
2024/01/16 14:35:17;;;;;;;;;;;;;;;-0.01;100.00;94808.88;10451398;28;1483;-71
2024/01/16 14:40:25;;;;;;;;;;;;;;;-0.15;100.00;94818.06;10456480;28;2444;-66
2024/01/16 14:45:27;;;;;;;;;;;;;;;-0.31;100.00;94816.94;10449167;28;2858;-65
2024/01/16 14:50:30;;;;;;;;;;;;;;;-0.53;100.00;94807.94;10432718;28;2292;-66
2024/01/16 14:55:33;;;;;;;;;;;;;;;-0.63;100.00;94808.53;10450964;28;1481;-67
2024/01/16 15:00:35;;;;;;;;;;;;;;;-0.46;100.00;94802.56;10455657;28;1632;-66
2024/01/16 15:05:38;;;;;;;;;;;;;;;-0.61;100.00;94798.53;10452236;28;2926;-65
2024/01/16 15:10:41;;;;;;;;;;;;;;;-0.85;100.00;94802.16;10450924;28;1486;-65
2024/01/16 15:15:44;;;;;;;;;;;;;;;-0.87;100.00;94801.59;10447713;28;1791;-65
2024/01/16 15:20:47;;;;;;;;;;;;;;;-0.82;100.00;94791.16;10454941;28;1518;-66
2024/01/16 15:25:49;;;;;;;;;;;;;;;-0.89;100.00;94779.88;10449449;28;1975;-66
2024/01/16 15:30:53;;;;;;;;;;;;;;;-1.01;100.00;94782.50;10454124;28;1535;-66
2024/01/16 15:35:55;;;;;;;;;;;;;;;-1.05;100.00;94791.09;10452407;28;1541;-65
2024/01/16 15:40:58;;;;;;;;;;;;;;;-1.17;100.00;94794.50;10450691;28;2782;-64
2024/01/16 15:46:01;;;;;;;;;;;;;;;-1.33;100.00;94804.88;10451267;28;1979;-64
2024/01/16 15:51:05;;;;;;;;;;;;;;;-1.46;100.00;94811.13;10451545;28;1494;-65
2024/01/16 15:56:12;;;;;;;;;;;;;;;-1.57;100.00;94804.75;10449785;28;1863;-67
2024/01/16 16:01:14;;;;;;;;;;;;;;;-1.64;100.00;94799.56;10448848;28;1675;-65
2024/01/16 16:06:17;;;;;;;;;;;;;;;-1.79;100.00;94799.13;10441223;28;1971;-66
2024/01/16 16:11:20;;;;;;;;;;;;;;;-1.81;100.00;94809.09;10450548;28;1538;-64
2024/01/16 16:16:23;;;;;;;;;;;;;;;-1.89;100.00;94806.75;10453195;28;1451;-65
2024/01/16 16:21:25;;;;;;;;;;;;;;;-1.98;100.00;94808.06;10446073;28;1506;-67
2024/01/16 16:26:28;;;;;;;;;;;;;;;-1.99;100.00;94817.00;10450908;28;3138;-68
2024/01/16 16:31:31;;;;;;;;;;;;;;;-2.18;100.00;94822.22;10451409;28;1562;-65
2024/01/16 16:36:33;;;;;;;;;;;;;;;-2.33;100.00;94808.63;10456888;28;2463;-65
2024/01/16 16:41:38;;;;;;;;;;;;;;;-2.42;100.00;94811.72;10454806;28;1549;-64
2024/01/16 16:46:41;;;;;;;;;;;;;;;-2.54;100.00;94814.28;10458226;28;1961;-64
2024/01/16 16:51:45;;;;;;;;;;;;;;;-2.56;100.00;94816.31;10452428;28;1431;-64
2024/01/16 16:56:48;;;;;;;;;;;;;;;-2.80;100.00;94826.63;10455875;28;1494;-65
2024/01/16 17:01:51;;;;;;;;;;;;;;;-2.92;100.00;94840.69;10457713;28;1499;-65
2024/01/16 17:06:55;;;;;;;;;;;;;;;-2.90;100.00;94838.63;10455999;28;2887;-65
2024/01/16 17:11:58;;;;;;;;;;;;;;;-2.95;100.00;94833.19;10456066;28;1442;-64
2024/01/16 17:17:03;;;;;;;;;;;;;;;-2.97;100.00;94830.00;10458295;28;1538;-64
2024/01/16 17:22:06;;;;;;;;;;;;;;;-3.07;100.00;94840.94;10449355;28;1758;-68
2024/01/16 17:27:08;;;;;;;;;;;;;;;-3.22;100.00;94837.81;10450414;28;1979;-66
2024/01/16 17:32:11;;;;;;;;;;;;;;;-3.26;100.00;94843.47;10452523;28;1492;-75
2024/01/16 17:37:13;;;;;;;;;;;;;;;-3.35;100.00;94830.81;10448995;28;1861;-69
2024/01/16 17:42:16;;;;;;;;;;;;;;;-3.49;100.00;94829.28;10457791;28;1544;-72
2024/01/16 17:47:19;;;;;;;;;;;;;;;-3.55;100.00;94823.03;10457661;28;2724;-70
2024/01/16 17:52:21;;;;;;;;;;;;;;;-3.52;100.00;94819.97;10451306;28;1585;-69
2024/01/16 17:57:24;;;;;;;;;;;;;;;-3.51;100.00;94824.22;10462106;28;2950;-66
2024/01/16 18:02:27;;;;;;;;;;;;;;;-3.51;100.00;94823.41;10465980;28;1962;-66
2024/01/16 18:07:29;;;;;;;;;;;;;;;-3.57;100.00;94820.59;10453564;28;1921;-66
2024/01/16 18:12:32;;;;;;;;;;;;;;;-3.62;100.00;94822.25;10454923;28;1475;-66
2024/01/16 18:17:39;;;;;;;;;;;;;;;-3.64;100.00;94829.53;10455648;28;1537;-70
2024/01/16 18:22:41;;;;;;;;;;;;;;;-3.59;100.00;94827.09;10448944;28;1660;-66
2024/01/16 18:27:44;;;;;;;;;;;;;;;-3.58;100.00;94829.50;10453541;28;1972;-67
2024/01/16 18:32:48;;;;;;;;;;;;;;;-3.58;100.00;94823.44;10461210;28;1494;-66
2024/01/16 18:37:52;;;;;;;;;;;;;;;-3.62;100.00;94820.44;10452426;28;2308;-67
2024/01/16 18:42:54;;;;;;;;;;;;;;;-3.65;100.00;94822.66;10450470;28;1513;-66
2024/01/16 18:47:58;;;;;;;;;;;;;;;-3.71;100.00;94819.03;10451612;28;1918;-66
2024/01/16 18:53:01;;;;;;;;;;;;;;;-3.57;100.00;94811.91;10447390;28;1411;-66
2024/01/16 18:58:04;;;;;;;;;;;;;;;-3.68;100.00;94809.97;10449678;28;1478;-68
2024/01/16 19:03:08;;;;;;;;;;;;;;;-3.61;100.00;94801.03;10446497;28;1513;-66
2024/01/16 19:08:10;;;;;;;;;;;;;;;-3.77;100.00;94803.31;10448397;28;1915;-67
2024/01/16 19:13:15;;;;;;;;;;;;;;;-3.70;100.00;94798.84;10450653;28;1482;-66
2024/01/16 19:18:18;;;;;;;;;;;;;;;-3.72;100.00;94793.00;10448167;28;1554;-66
2024/01/16 19:23:20;;;;;;;;;;;;;;;-3.68;100.00;94786.31;10450373;28;1678;-66
2024/01/16 19:28:23;;;;;;;;;;;;;;;-3.62;100.00;94775.78;10448345;28;1913;-65
2024/01/16 19:33:26;;;;;;;;;;;;;;;-3.75;100.00;94777.63;10446757;28;2755;-66
2024/01/16 19:38:35;;;;;;;;;;;;;;;-3.77;100.00;94771.81;10448268;28;2564;-67
2024/01/16 19:43:38;;;;;;;;;;;;;;;-3.80;100.00;94762.53;10450690;28;1501;-67
2024/01/16 19:48:41;;;;;;;;;;;;;;;-3.73;100.00;94757.25;10447315;28;1922;-68
2024/01/16 19:53:44;;;;;;;;;;;;;;;-3.72;100.00;94746.53;10449255;28;1513;-67
2024/01/16 19:58:49;;;;;;;;;;;;;;;-3.74;100.00;94745.13;10450192;28;1486;-66
2024/01/16 20:03:52;;;;;;;;;;;;;;;-3.87;100.00;94738.13;10440644;28;1615;-67
2024/01/16 20:08:57;;;;;;;;;;;;;;;-4.02;100.00;94738.38;10455750;28;1987;-68
2024/01/16 20:14:00;;;;;;;;;;;;;;;-4.04;100.00;94722.03;10452600;28;1774;-66
2024/01/16 20:19:02;;;;;;;;;;;;;;;-4.11;100.00;94723.88;10458550;28;1463;-68
2024/01/16 20:24:06;;;;;;;;;;;;;;;-4.05;100.00;94717.81;10452171;28;1589;-67
2024/01/16 20:29:10;;;;;;;;;;;;;;;-3.97;100.00;94707.06;10450906;28;2510;-66
2024/01/16 20:34:13;;;;;;;;;;;;;;;-3.98;100.00;94699.41;10452323;28;1501;-71
2024/01/16 20:39:16;;;;;;;;;;;;;;;-4.09;100.00;94695.59;10454683;28;2330;-64
2024/01/16 20:44:20;;;;;;;;;;;;;;;-4.11;100.00;94698.44;10454249;28;1552;-67
2024/01/16 20:49:23;;;;;;;;;;;;;;;-4.31;100.00;94687.22;10455526;28;1977;-66
2024/01/16 20:54:26;;;;;;;;;;;;;;;-4.21;100.00;94684.97;10459109;28;1630;-66
2024/01/16 20:59:28;;;;;;;;;;;;;;;-4.22;100.00;94672.84;10459548;28;1446;-66
2024/01/16 21:04:31;;;;;;;;;;;;;;;-4.22;100.00;94674.69;10451467;28;1615;-67
2024/01/16 21:09:33;;;;;;;;;;;;;;;-4.21;100.00;94666.59;10455021;28;1954;-69
2024/01/16 21:14:36;;;;;;;;;;;;;;;-4.20;100.00;94656.91;10463969;28;1451;-66
2024/01/16 21:19:39;;;;;;;;;;;;;;;-4.25;100.00;94648.88;10446156;28;2434;-66
2024/01/16 21:24:42;;;;;;;;;;;;;;;-4.26;100.00;94644.59;10453888;28;1551;-65
2024/01/16 21:29:45;;;;;;;;;;;;;;;-4.22;100.00;94643.19;10448892;28;1917;-65
2024/01/16 21:34:47;;;;;;;;;;;;;;;-4.30;100.00;94643.44;10453716;28;1592;-67
2024/01/16 21:39:50;;;;;;;;;;;;;;;-4.27;100.00;94638.56;10457004;28;1795;-64
2024/01/16 21:44:53;;;;;;;;;;;;;;;-4.33;100.00;94635.97;10448683;28;1618;-66
2024/01/16 21:49:56;;;;;;;;;;;;;;;-4.39;100.00;94641.06;10448455;28;2912;-65
2024/01/16 21:55:01;;;;;;;;;;;;;;;-4.41;100.00;94626.53;10440867;28;2883;-64
2024/01/16 22:00:04;;;;;;;;;;;;;;;-4.36;100.00;94626.72;10444037;28;2950;-66
2024/01/16 22:05:07;;;;;;;;;;;;;;;-4.37;100.00;94620.66;10439627;28;3196;-66
2024/01/16 22:10:10;;;;;;;;;;;;;;;-4.28;100.00;94623.03;10438243;28;2954;-64
2024/01/16 22:15:12;;;;;;;;;;;;;;;-4.33;100.00;94614.97;10442491;28;2880;-67
2024/01/16 22:20:16;;;;;;;;;;;;;;;-4.33;100.00;94609.72;10436097;28;3013;-67
2024/01/16 22:25:18;;;;;;;;;;;;;;;-4.40;100.00;94596.66;10424750;28;2993;-67
2024/01/16 22:30:22;;;;;;;;;;;;;;;-4.56;100.00;94595.31;10436658;28;2969;-66
2024/01/16 22:35:25;;;;;;;;;;;;;;;-4.55;100.00;94591.69;10436553;28;2906;-66
2024/01/16 22:40:30;;;;;;;;;;;;;;;-4.63;100.00;94578.81;10416822;28;2991;-66
2024/01/16 22:45:32;;;;;;;;;;;;;;;-4.65;100.00;94567.72;10440037;28;2974;-66
2024/01/16 22:50:35;;;;;;;;;;;;;;;-4.78;100.00;94549.44;10441065;28;3033;-65
2024/01/16 22:55:37;;;;;;;;;;;;;;;-4.75;100.00;94535.91;10415302;28;2907;-66
2024/01/16 23:00:41;;;;;;;;;;;;;;;-4.68;100.00;94534.88;10427962;28;3092;-65
2024/01/16 23:05:44;;;;;;;;;;;;;;;-4.75;100.00;94528.84;10431269;28;3053;-66
2024/01/16 23:10:47;;;;;;;;;;;;;;;-4.75;100.00;94501.84;10434993;28;3135;-66
2024/01/16 23:15:51;;;;;;;;;;;;;;;-4.63;100.00;94495.72;10438789;28;2927;-65
2024/01/16 23:20:54;;;;;;;;;;;;;;;-4.74;100.00;94493.75;10434207;28;2970;-65
2024/01/16 23:25:56;;;;;;;;;;;;;;;-4.74;100.00;94482.47;10434722;28;3045;-66
2024/01/16 23:31:00;;;;;;;;;;;;;;;-4.69;100.00;94483.44;10437562;28;2937;-72
2024/01/16 23:36:02;;;;;;;;;;;;;;;-4.71;100.00;94476.78;10434403;28;2981;-69
2024/01/16 23:41:05;;;;;;;;;;;;;;;-4.80;100.00;94475.44;10435958;28;3016;-65
2024/01/16 23:46:07;;;;;;;;;;;;;;;-4.84;100.00;94477.66;10438610;28;3057;-66
2024/01/16 23:51:09;;;;;;;;;;;;;;;-4.65;100.00;94470.69;10438003;28;3140;-65
2024/01/16 23:56:12;;;;;;;;;;;;;;;-4.52;100.00;94459.31;10434860;28;3048;-64
